sensor_id;sensor_type;location;lat;lon;timestamp;temperature;humidity
43671;DHT22;29267;50.906;7.248;2022-07-19T00:01:39;20.30;74.80
43671;DHT22;29267;50.906;7.248;2022-07-19T00:04:05;20.30;74.60
43671;DHT22;29267;50.906;7.248;2022-07-19T00:06:31;20.30;75.00
43671;DHT22;29267;50.906;7.248;2022-07-19T00:08:56;20.30;75.00
43671;DHT22;29267;50.906;7.248;2022-07-19T00:11:22;20.10;75.40
43671;DHT22;29267;50.906;7.248;2022-07-19T00:13:48;20.10;75.60
43671;DHT22;29267;50.906;7.248;2022-07-19T00:16:13;20.00;75.50
43671;DHT22;29267;50.906;7.248;2022-07-19T00:18:40;20.00;75.70
43671;DHT22;29267;50.906;7.248;2022-07-19T00:21:06;20.00;75.80
43671;DHT22;29267;50.906;7.248;2022-07-19T00:23:31;20.00;75.90
43671;DHT22;29267;50.906;7.248;2022-07-19T00:25:57;20.00;75.90
43671;DHT22;29267;50.906;7.248;2022-07-19T00:28:22;19.90;75.90
43671;DHT22;29267;50.906;7.248;2022-07-19T00:30:48;19.80;76.70
43671;DHT22;29267;50.906;7.248;2022-07-19T00:33:13;19.80;76.70
43671;DHT22;29267;50.906;7.248;2022-07-19T00:35:40;19.70;76.80
43671;DHT22;29267;50.906;7.248;2022-07-19T00:38:07;19.80;77.20
43671;DHT22;29267;50.906;7.248;2022-07-19T00:40:34;19.70;77.20
43671;DHT22;29267;50.906;7.248;2022-07-19T00:42:59;19.60;77.30
43671;DHT22;29267;50.906;7.248;2022-07-19T00:45:25;19.60;77.20
43671;DHT22;29267;50.906;7.248;2022-07-19T00:47:51;19.60;77.20
43671;DHT22;29267;50.906;7.248;2022-07-19T00:50:18;19.60;77.70
43671;DHT22;29267;50.906;7.248;2022-07-19T00:52:46;19.50;77.60
43671;DHT22;29267;50.906;7.248;2022-07-19T00:55:15;19.50;77.80
43671;DHT22;29267;50.906;7.248;2022-07-19T00:57:43;19.40;78.50
43671;DHT22;29267;50.906;7.248;2022-07-19T01:00:09;19.40;78.50
43671;DHT22;29267;50.906;7.248;2022-07-19T01:02:36;19.30;78.80
43671;DHT22;29267;50.906;7.248;2022-07-19T01:05:03;19.30;78.90
43671;DHT22;29267;50.906;7.248;2022-07-19T01:07:28;19.30;78.90
43671;DHT22;29267;50.906;7.248;2022-07-19T01:09:54;19.20;79.10
43671;DHT22;29267;50.906;7.248;2022-07-19T01:12:20;19.20;79.40
43671;DHT22;29267;50.906;7.248;2022-07-19T01:14:48;19.20;79.40
43671;DHT22;29267;50.906;7.248;2022-07-19T01:17:14;19.20;79.70
43671;DHT22;29267;50.906;7.248;2022-07-19T01:19:42;19.10;80.00
43671;DHT22;29267;50.906;7.248;2022-07-19T01:22:08;19.00;80.20
43671;DHT22;29267;50.906;7.248;2022-07-19T01:24:33;19.00;80.80
43671;DHT22;29267;50.906;7.248;2022-07-19T01:26:59;19.00;81.00
43671;DHT22;29267;50.906;7.248;2022-07-19T01:29:24;18.90;81.50
43671;DHT22;29267;50.906;7.248;2022-07-19T01:31:50;18.90;81.90
43671;DHT22;29267;50.906;7.248;2022-07-19T01:34:16;18.90;82.20
43671;DHT22;29267;50.906;7.248;2022-07-19T01:36:41;18.80;82.50
43671;DHT22;29267;50.906;7.248;2022-07-19T01:39:07;18.80;83.10
43671;DHT22;29267;50.906;7.248;2022-07-19T01:41:32;18.70;83.80
43671;DHT22;29267;50.906;7.248;2022-07-19T01:43:58;18.70;83.70
43671;DHT22;29267;50.906;7.248;2022-07-19T01:46:24;18.60;84.20
43671;DHT22;29267;50.906;7.248;2022-07-19T01:48:49;18.60;84.60
43671;DHT22;29267;50.906;7.248;2022-07-19T01:51:15;18.60;84.50
43671;DHT22;29267;50.906;7.248;2022-07-19T01:53:40;18.50;85.00
43671;DHT22;29267;50.906;7.248;2022-07-19T01:56:06;18.40;85.40
43671;DHT22;29267;50.906;7.248;2022-07-19T01:58:32;18.50;85.80
43671;DHT22;29267;50.906;7.248;2022-07-19T02:00:58;18.50;86.00
43671;DHT22;29267;50.906;7.248;2022-07-19T02:03:23;18.40;86.70
43671;DHT22;29267;50.906;7.248;2022-07-19T02:05:50;18.40;86.70
43671;DHT22;29267;50.906;7.248;2022-07-19T02:08:16;18.40;87.00
43671;DHT22;29267;50.906;7.248;2022-07-19T02:10:41;18.40;87.00
43671;DHT22;29267;50.906;7.248;2022-07-19T02:13:07;18.40;87.20
43671;DHT22;29267;50.906;7.248;2022-07-19T02:18:18;18.40;86.70
43671;DHT22;29267;50.906;7.248;2022-07-19T02:20:44;18.30;87.20
43671;DHT22;29267;50.906;7.248;2022-07-19T02:23:09;18.30;87.20
43671;DHT22;29267;50.906;7.248;2022-07-19T02:25:35;18.30;87.30
43671;DHT22;29267;50.906;7.248;2022-07-19T02:28:00;18.30;87.30
43671;DHT22;29267;50.906;7.248;2022-07-19T02:30:26;18.30;87.90
43671;DHT22;29267;50.906;7.248;2022-07-19T02:32:52;18.30;88.00
43671;DHT22;29267;50.906;7.248;2022-07-19T02:35:18;18.30;88.20
43671;DHT22;29267;50.906;7.248;2022-07-19T02:37:44;18.20;88.10
43671;DHT22;29267;50.906;7.248;2022-07-19T02:40:10;18.20;88.60
43671;DHT22;29267;50.906;7.248;2022-07-19T02:42:36;18.10;88.80
43671;DHT22;29267;50.906;7.248;2022-07-19T02:45:03;18.10;88.80
43671;DHT22;29267;50.906;7.248;2022-07-19T02:47:29;18.10;88.70
43671;DHT22;29267;50.906;7.248;2022-07-19T02:49:55;18.20;88.60
43671;DHT22;29267;50.906;7.248;2022-07-19T02:52:21;18.20;88.60
43671;DHT22;29267;50.906;7.248;2022-07-19T02:54:46;18.20;88.30
43671;DHT22;29267;50.906;7.248;2022-07-19T02:57:12;18.20;88.40
43671;DHT22;29267;50.906;7.248;2022-07-19T02:59:38;18.10;88.00
43671;DHT22;29267;50.906;7.248;2022-07-19T03:02:03;18.10;87.70
43671;DHT22;29267;50.906;7.248;2022-07-19T03:04:29;18.10;87.40
43671;DHT22;29267;50.906;7.248;2022-07-19T03:06:55;18.10;87.00
43671;DHT22;29267;50.906;7.248;2022-07-19T03:09:20;18.20;87.60
43671;DHT22;29267;50.906;7.248;2022-07-19T03:11:46;18.10;88.00
43671;DHT22;29267;50.906;7.248;2022-07-19T03:14:12;18.10;88.10
43671;DHT22;29267;50.906;7.248;2022-07-19T03:16:38;18.00;89.10
43671;DHT22;29267;50.906;7.248;2022-07-19T03:19:04;18.00;89.40
43671;DHT22;29267;50.906;7.248;2022-07-19T03:21:29;18.00;89.20
43671;DHT22;29267;50.906;7.248;2022-07-19T03:23:55;18.10;89.20
43671;DHT22;29267;50.906;7.248;2022-07-19T03:26:20;18.00;89.00
43671;DHT22;29267;50.906;7.248;2022-07-19T03:28:46;18.00;89.70
43671;DHT22;29267;50.906;7.248;2022-07-19T03:31:12;18.00;88.60
43671;DHT22;29267;50.906;7.248;2022-07-19T03:33:37;18.00;88.30
43671;DHT22;29267;50.906;7.248;2022-07-19T03:36:03;18.20;86.10
43671;DHT22;29267;50.906;7.248;2022-07-19T03:38:29;18.20;85.60
43671;DHT22;29267;50.906;7.248;2022-07-19T03:40:55;18.30;84.60
43671;DHT22;29267;50.906;7.248;2022-07-19T03:43:20;18.50;84.10
43671;DHT22;29267;50.906;7.248;2022-07-19T03:45:48;18.50;82.80
43671;DHT22;29267;50.906;7.248;2022-07-19T03:48:15;18.60;82.60
43671;DHT22;29267;50.906;7.248;2022-07-19T03:50:41;18.60;82.10
43671;DHT22;29267;50.906;7.248;2022-07-19T03:53:06;18.70;81.80
43671;DHT22;29267;50.906;7.248;2022-07-19T03:55:32;18.80;80.00
43671;DHT22;29267;50.906;7.248;2022-07-19T03:57:58;18.90;80.80
43671;DHT22;29267;50.906;7.248;2022-07-19T04:00:24;18.90;81.30
43671;DHT22;29267;50.906;7.248;2022-07-19T04:02:50;18.90;82.00
43671;DHT22;29267;50.906;7.248;2022-07-19T04:05:15;18.90;82.10
43671;DHT22;29267;50.906;7.248;2022-07-19T04:07:41;18.90;81.90
43671;DHT22;29267;50.906;7.248;2022-07-19T04:10:07;18.80;82.00
43671;DHT22;29267;50.906;7.248;2022-07-19T04:12:33;18.90;81.00
43671;DHT22;29267;50.906;7.248;2022-07-19T04:14:59;18.90;81.10
43671;DHT22;29267;50.906;7.248;2022-07-19T04:17:26;19.00;80.40
43671;DHT22;29267;50.906;7.248;2022-07-19T04:19:51;19.10;80.20
43671;DHT22;29267;50.906;7.248;2022-07-19T04:22:17;19.10;79.90
43671;DHT22;29267;50.906;7.248;2022-07-19T04:24:43;19.20;79.80
43671;DHT22;29267;50.906;7.248;2022-07-19T04:27:08;19.20;79.60
43671;DHT22;29267;50.906;7.248;2022-07-19T04:29:34;19.20;81.70
43671;DHT22;29267;50.906;7.248;2022-07-19T04:32:00;19.30;81.90
43671;DHT22;29267;50.906;7.248;2022-07-19T04:34:26;19.40;81.00
43671;DHT22;29267;50.906;7.248;2022-07-19T04:36:51;19.40;78.50
43671;DHT22;29267;50.906;7.248;2022-07-19T04:39:17;19.60;78.90
43671;DHT22;29267;50.906;7.248;2022-07-19T04:41:42;19.90;79.20
43671;DHT22;29267;50.906;7.248;2022-07-19T04:44:08;20.70;79.10
43671;DHT22;29267;50.906;7.248;2022-07-19T04:46:34;21.60;73.60
43671;DHT22;29267;50.906;7.248;2022-07-19T04:48:59;22.60;71.30
43671;DHT22;29267;50.906;7.248;2022-07-19T04:51:25;23.40;68.30
43671;DHT22;29267;50.906;7.248;2022-07-19T04:53:51;24.00;67.40
43671;DHT22;29267;50.906;7.248;2022-07-19T04:56:16;24.80;65.60
43671;DHT22;29267;50.906;7.248;2022-07-19T04:58:42;25.80;62.90
43671;DHT22;29267;50.906;7.248;2022-07-19T05:01:07;26.60;61.20
43671;DHT22;29267;50.906;7.248;2022-07-19T05:03:33;27.30;59.40
43671;DHT22;29267;50.906;7.248;2022-07-19T05:05:59;27.90;57.90
43671;DHT22;29267;50.906;7.248;2022-07-19T05:08:24;28.30;57.30
43671;DHT22;29267;50.906;7.248;2022-07-19T05:10:50;28.40;56.30
43671;DHT22;29267;50.906;7.248;2022-07-19T05:13:15;28.30;56.80
43671;DHT22;29267;50.906;7.248;2022-07-19T05:15:41;28.50;56.90
43671;DHT22;29267;50.906;7.248;2022-07-19T05:18:07;28.20;56.40
43671;DHT22;29267;50.906;7.248;2022-07-19T05:20:32;28.80;55.90
43671;DHT22;29267;50.906;7.248;2022-07-19T05:22:58;29.30;55.60
43671;DHT22;29267;50.906;7.248;2022-07-19T05:25:24;30.10;53.80
43671;DHT22;29267;50.906;7.248;2022-07-19T05:27:49;29.90;53.40
43671;DHT22;29267;50.906;7.248;2022-07-19T05:30:15;29.80;53.40
43671;DHT22;29267;50.906;7.248;2022-07-19T05:32:41;30.30;53.90
43671;DHT22;29267;50.906;7.248;2022-07-19T05:35:07;30.30;54.60
43671;DHT22;29267;50.906;7.248;2022-07-19T05:37:32;31.40;52.20
43671;DHT22;29267;50.906;7.248;2022-07-19T05:39:58;31.50;51.30
43671;DHT22;29267;50.906;7.248;2022-07-19T05:42:23;31.20;52.30
43671;DHT22;29267;50.906;7.248;2022-07-19T05:44:49;31.80;50.40
43671;DHT22;29267;50.906;7.248;2022-07-19T05:47:15;32.00;50.00
43671;DHT22;29267;50.906;7.248;2022-07-19T05:49:41;32.10;49.40
43671;DHT22;29267;50.906;7.248;2022-07-19T05:52:06;32.40;49.40
43671;DHT22;29267;50.906;7.248;2022-07-19T05:54:32;33.00;49.80
43671;DHT22;29267;50.906;7.248;2022-07-19T05:56:58;33.00;49.60
43671;DHT22;29267;50.906;7.248;2022-07-19T05:59:23;34.00;47.80
43671;DHT22;29267;50.906;7.248;2022-07-19T06:01:49;33.60;49.20
43671;DHT22;29267;50.906;7.248;2022-07-19T06:04:15;33.90;48.00
43671;DHT22;29267;50.906;7.248;2022-07-19T06:06:41;33.90;47.70
43671;DHT22;29267;50.906;7.248;2022-07-19T06:09:07;33.90;48.60
43671;DHT22;29267;50.906;7.248;2022-07-19T06:11:38;34.30;47.60
43671;DHT22;29267;50.906;7.248;2022-07-19T06:14:04;34.40;48.10
43671;DHT22;29267;50.906;7.248;2022-07-19T06:16:32;34.60;47.80
43671;DHT22;29267;50.906;7.248;2022-07-19T06:18:57;35.20;47.20
43671;DHT22;29267;50.906;7.248;2022-07-19T06:21:23;35.10;46.70
43671;DHT22;29267;50.906;7.248;2022-07-19T06:23:49;35.20;47.50
43671;DHT22;29267;50.906;7.248;2022-07-19T06:26:15;35.30;46.50
43671;DHT22;29267;50.906;7.248;2022-07-19T06:28:41;35.40;45.20
43671;DHT22;29267;50.906;7.248;2022-07-19T06:31:07;35.50;45.70
43671;DHT22;29267;50.906;7.248;2022-07-19T06:33:33;35.70;45.30
43671;DHT22;29267;50.906;7.248;2022-07-19T06:35:59;36.50;45.40
43671;DHT22;29267;50.906;7.248;2022-07-19T06:38:24;36.40;44.60
43671;DHT22;29267;50.906;7.248;2022-07-19T06:40:50;36.50;44.60
43671;DHT22;29267;50.906;7.248;2022-07-19T06:43:15;37.30;44.10
43671;DHT22;29267;50.906;7.248;2022-07-19T06:45:41;37.30;43.80
43671;DHT22;29267;50.906;7.248;2022-07-19T06:48:07;37.00;44.30
43671;DHT22;29267;50.906;7.248;2022-07-19T06:50:33;37.00;44.20
43671;DHT22;29267;50.906;7.248;2022-07-19T06:52:59;37.30;42.80
43671;DHT22;29267;50.906;7.248;2022-07-19T06:55:24;37.50;43.60
43671;DHT22;29267;50.906;7.248;2022-07-19T06:57:51;37.50;43.50
43671;DHT22;29267;50.906;7.248;2022-07-19T07:00:17;37.90;44.60
43671;DHT22;29267;50.906;7.248;2022-07-19T07:02:43;38.50;43.10
43671;DHT22;29267;50.906;7.248;2022-07-19T07:05:10;38.10;41.60
43671;DHT22;29267;50.906;7.248;2022-07-19T07:07:36;38.80;42.20
43671;DHT22;29267;50.906;7.248;2022-07-19T07:10:04;39.00;42.90
43671;DHT22;29267;50.906;7.248;2022-07-19T07:12:31;39.40;43.30
43671;DHT22;29267;50.906;7.248;2022-07-19T07:14:57;39.10;41.70
43671;DHT22;29267;50.906;7.248;2022-07-19T07:17:23;39.80;42.20
43671;DHT22;29267;50.906;7.248;2022-07-19T07:19:49;39.20;40.70
43671;DHT22;29267;50.906;7.248;2022-07-19T07:22:15;38.90;41.60
43671;DHT22;29267;50.906;7.248;2022-07-19T07:24:40;40.10;42.10
43671;DHT22;29267;50.906;7.248;2022-07-19T07:27:06;40.50;42.30
43671;DHT22;29267;50.906;7.248;2022-07-19T07:29:32;41.00;40.40
43671;DHT22;29267;50.906;7.248;2022-07-19T07:31:58;40.90;41.40
43671;DHT22;29267;50.906;7.248;2022-07-19T07:34:23;42.00;40.50
43671;DHT22;29267;50.906;7.248;2022-07-19T07:36:49;41.40;40.30
43671;DHT22;29267;50.906;7.248;2022-07-19T07:39:15;40.30;40.40
43671;DHT22;29267;50.906;7.248;2022-07-19T07:41:41;41.00;41.10
43671;DHT22;29267;50.906;7.248;2022-07-19T07:44:07;40.40;41.40
43671;DHT22;29267;50.906;7.248;2022-07-19T07:46:33;41.10;42.00
43671;DHT22;29267;50.906;7.248;2022-07-19T07:48:58;41.40;40.40
43671;DHT22;29267;50.906;7.248;2022-07-19T07:51:24;41.80;40.30
43671;DHT22;29267;50.906;7.248;2022-07-19T07:53:50;41.60;40.90
43671;DHT22;29267;50.906;7.248;2022-07-19T07:56:16;41.60;40.10
43671;DHT22;29267;50.906;7.248;2022-07-19T07:58:42;42.00;40.90
43671;DHT22;29267;50.906;7.248;2022-07-19T08:01:08;41.90;40.70
43671;DHT22;29267;50.906;7.248;2022-07-19T08:03:33;41.60;40.00
43671;DHT22;29267;50.906;7.248;2022-07-19T08:05:59;41.70;39.90
43671;DHT22;29267;50.906;7.248;2022-07-19T08:08:25;41.80;39.10
43671;DHT22;29267;50.906;7.248;2022-07-19T08:10:55;42.20;39.50
43671;DHT22;29267;50.906;7.248;2022-07-19T08:13:21;42.30;39.30
43671;DHT22;29267;50.906;7.248;2022-07-19T08:15:47;42.60;39.60
43671;DHT22;29267;50.906;7.248;2022-07-19T08:18:13;42.40;39.50
43671;DHT22;29267;50.906;7.248;2022-07-19T08:20:39;42.50;39.30
43671;DHT22;29267;50.906;7.248;2022-07-19T08:23:04;42.30;38.90
43671;DHT22;29267;50.906;7.248;2022-07-19T08:25:30;42.00;39.20
43671;DHT22;29267;50.906;7.248;2022-07-19T08:27:57;41.80;40.20
43671;DHT22;29267;50.906;7.248;2022-07-19T08:30:23;42.40;41.30
43671;DHT22;29267;50.906;7.248;2022-07-19T08:32:49;42.20;39.70
43671;DHT22;29267;50.906;7.248;2022-07-19T08:35:14;42.70;39.30
43671;DHT22;29267;50.906;7.248;2022-07-19T08:37:40;43.40;38.20
43671;DHT22;29267;50.906;7.248;2022-07-19T08:40:06;42.70;39.60
43671;DHT22;29267;50.906;7.248;2022-07-19T08:42:32;43.00;39.30
43671;DHT22;29267;50.906;7.248;2022-07-19T08:45:01;42.60;38.20
43671;DHT22;29267;50.906;7.248;2022-07-19T08:47:29;42.70;38.50
43671;DHT22;29267;50.906;7.248;2022-07-19T08:49:54;42.40;39.60
43671;DHT22;29267;50.906;7.248;2022-07-19T08:52:23;43.50;38.40
43671;DHT22;29267;50.906;7.248;2022-07-19T08:54:49;43.30;37.20
43671;DHT22;29267;50.906;7.248;2022-07-19T08:57:15;43.30;38.40
43671;DHT22;29267;50.906;7.248;2022-07-19T08:59:59;43.60;37.10
43671;DHT22;29267;50.906;7.248;2022-07-19T09:02:25;43.70;37.30
43671;DHT22;29267;50.906;7.248;2022-07-19T09:05:10;42.70;36.50
43671;DHT22;29267;50.906;7.248;2022-07-19T09:07:39;43.00;37.60
43671;DHT22;29267;50.906;7.248;2022-07-19T09:10:20;42.90;37.60
43671;DHT22;29267;50.906;7.248;2022-07-19T09:13:12;42.80;37.20
43671;DHT22;29267;50.906;7.248;2022-07-19T09:18:22;42.90;36.70
43671;DHT22;29267;50.906;7.248;2022-07-19T09:20:50;43.40;37.00
43671;DHT22;29267;50.906;7.248;2022-07-19T09:23:16;43.30;37.40
43671;DHT22;29267;50.906;7.248;2022-07-19T09:28:14;43.60;36.40
43671;DHT22;29267;50.906;7.248;2022-07-19T09:30:43;43.10;37.10
43671;DHT22;29267;50.906;7.248;2022-07-19T09:35:50;42.50;36.80
43671;DHT22;29267;50.906;7.248;2022-07-19T09:38:19;42.80;38.00
43671;DHT22;29267;50.906;7.248;2022-07-19T09:40:46;42.70;37.30
43671;DHT22;29267;50.906;7.248;2022-07-19T09:43:13;43.20;36.70
43671;DHT22;29267;50.906;7.248;2022-07-19T09:45:38;43.30;36.10
43671;DHT22;29267;50.906;7.248;2022-07-19T09:48:04;43.30;36.80
43671;DHT22;29267;50.906;7.248;2022-07-19T09:50:30;43.20;35.90
43671;DHT22;29267;50.906;7.248;2022-07-19T09:53:01;43.30;36.10
43671;DHT22;29267;50.906;7.248;2022-07-19T09:55:27;43.40;36.10
43671;DHT22;29267;50.906;7.248;2022-07-19T09:57:53;43.00;35.40
43671;DHT22;29267;50.906;7.248;2022-07-19T10:00:22;42.90;36.50
43671;DHT22;29267;50.906;7.248;2022-07-19T10:02:54;42.90;38.50
43671;DHT22;29267;50.906;7.248;2022-07-19T10:05:21;42.90;35.90
43671;DHT22;29267;50.906;7.248;2022-07-19T10:07:47;42.60;36.30
43671;DHT22;29267;50.906;7.248;2022-07-19T10:10:14;42.70;36.20
43671;DHT22;29267;50.906;7.248;2022-07-19T10:12:43;42.80;37.10
43671;DHT22;29267;50.906;7.248;2022-07-19T10:15:12;42.10;37.40
43671;DHT22;29267;50.906;7.248;2022-07-19T10:17:46;41.60;37.20
43671;DHT22;29267;50.906;7.248;2022-07-19T10:20:18;41.60;38.10
43671;DHT22;29267;50.906;7.248;2022-07-19T10:22:44;41.00;36.80
43671;DHT22;29267;50.906;7.248;2022-07-19T10:25:13;40.60;37.90
43671;DHT22;29267;50.906;7.248;2022-07-19T10:27:44;40.20;38.40
43671;DHT22;29267;50.906;7.248;2022-07-19T10:32:37;40.10;38.00
43671;DHT22;29267;50.906;7.248;2022-07-19T10:37:45;39.70;36.70
43671;DHT22;29267;50.906;7.248;2022-07-19T10:40:11;39.40;38.10
43671;DHT22;29267;50.906;7.248;2022-07-19T10:43:07;39.00;37.30
43671;DHT22;29267;50.906;7.248;2022-07-19T10:45:33;39.00;39.00
43671;DHT22;29267;50.906;7.248;2022-07-19T10:48:03;39.00;38.70
43671;DHT22;29267;50.906;7.248;2022-07-19T10:50:55;39.00;37.70
43671;DHT22;29267;50.906;7.248;2022-07-19T10:56:40;38.40;36.60
43671;DHT22;29267;50.906;7.248;2022-07-19T10:59:11;38.20;36.20
43671;DHT22;29267;50.906;7.248;2022-07-19T11:01:39;38.00;37.00
43671;DHT22;29267;50.906;7.248;2022-07-19T11:04:44;37.60;35.90
43671;DHT22;29267;50.906;7.248;2022-07-19T11:09:56;37.10;36.90
43671;DHT22;29267;50.906;7.248;2022-07-19T11:12:42;37.10;37.70
43671;DHT22;29267;50.906;7.248;2022-07-19T11:15:10;37.30;39.00
43671;DHT22;29267;50.906;7.248;2022-07-19T11:17:37;37.50;38.80
43671;DHT22;29267;50.906;7.248;2022-07-19T11:20:11;37.60;37.50
43671;DHT22;29267;50.906;7.248;2022-07-19T11:22:44;37.60;37.40
43671;DHT22;29267;50.906;7.248;2022-07-19T11:25:10;37.40;36.60
43671;DHT22;29267;50.906;7.248;2022-07-19T11:27:40;37.20;37.70
43671;DHT22;29267;50.906;7.248;2022-07-19T11:30:06;37.00;37.50
43671;DHT22;29267;50.906;7.248;2022-07-19T11:32:32;36.90;37.30
43671;DHT22;29267;50.906;7.248;2022-07-19T11:35:03;36.90;37.10
43671;DHT22;29267;50.906;7.248;2022-07-19T11:37:38;36.90;37.50
43671;DHT22;29267;50.906;7.248;2022-07-19T11:40:06;36.70;37.00
43671;DHT22;29267;50.906;7.248;2022-07-19T11:42:45;36.80;37.70
43671;DHT22;29267;50.906;7.248;2022-07-19T11:47:40;36.60;38.20
43671;DHT22;29267;50.906;7.248;2022-07-19T11:50:07;36.80;39.10
43671;DHT22;29267;50.906;7.248;2022-07-19T11:52:56;37.00;38.00
43671;DHT22;29267;50.906;7.248;2022-07-19T11:55:28;37.20;37.40
43671;DHT22;29267;50.906;7.248;2022-07-19T11:57:55;36.90;36.60
43671;DHT22;29267;50.906;7.248;2022-07-19T12:00:21;36.90;37.50
43671;DHT22;29267;50.906;7.248;2022-07-19T12:02:58;36.90;38.10
43671;DHT22;29267;50.906;7.248;2022-07-19T12:05:25;36.90;37.60
43671;DHT22;29267;50.906;7.248;2022-07-19T12:07:52;36.90;38.20
43671;DHT22;29267;50.906;7.248;2022-07-19T12:10:37;36.90;36.90
43671;DHT22;29267;50.906;7.248;2022-07-19T12:13:05;36.90;37.60
43671;DHT22;29267;50.906;7.248;2022-07-19T12:18:42;36.80;38.40
43671;DHT22;29267;50.906;7.248;2022-07-19T12:24:16;36.70;38.40
43671;DHT22;29267;50.906;7.248;2022-07-19T12:32:08;36.70;37.60
43671;DHT22;29267;50.906;7.248;2022-07-19T12:35:10;36.80;38.40
43671;DHT22;29267;50.906;7.248;2022-07-19T12:37:43;36.70;37.50
43671;DHT22;29267;50.906;7.248;2022-07-19T12:40:21;36.50;38.20
43671;DHT22;29267;50.906;7.248;2022-07-19T12:45:21;36.50;37.60
43671;DHT22;29267;50.906;7.248;2022-07-19T12:47:48;36.30;37.50
43671;DHT22;29267;50.906;7.248;2022-07-19T12:52:53;36.20;37.20
43671;DHT22;29267;50.906;7.248;2022-07-19T12:55:20;36.10;37.60
43671;DHT22;29267;50.906;7.248;2022-07-19T12:57:47;36.10;37.90
43671;DHT22;29267;50.906;7.248;2022-07-19T13:00:14;36.10;36.80
43671;DHT22;29267;50.906;7.248;2022-07-19T13:02:41;36.10;37.00
43671;DHT22;29267;50.906;7.248;2022-07-19T13:05:07;36.20;36.80
43671;DHT22;29267;50.906;7.248;2022-07-19T13:07:33;36.20;37.20
43671;DHT22;29267;50.906;7.248;2022-07-19T13:09:58;36.20;37.20
43671;DHT22;29267;50.906;7.248;2022-07-19T13:12:24;36.10;37.20
43671;DHT22;29267;50.906;7.248;2022-07-19T13:14:50;36.10;36.40
43671;DHT22;29267;50.906;7.248;2022-07-19T13:17:15;36.10;37.30
43671;DHT22;29267;50.906;7.248;2022-07-19T13:19:41;36.10;37.30
43671;DHT22;29267;50.906;7.248;2022-07-19T13:22:07;36.10;37.90
43671;DHT22;29267;50.906;7.248;2022-07-19T13:24:33;36.10;37.20
43671;DHT22;29267;50.906;7.248;2022-07-19T13:26:59;36.00;37.30
43671;DHT22;29267;50.906;7.248;2022-07-19T13:29:25;36.00;37.90
43671;DHT22;29267;50.906;7.248;2022-07-19T13:31:52;36.00;37.60
43671;DHT22;29267;50.906;7.248;2022-07-19T13:34:17;36.00;38.50
43671;DHT22;29267;50.906;7.248;2022-07-19T13:36:43;36.10;38.40
43671;DHT22;29267;50.906;7.248;2022-07-19T13:39:09;36.10;37.20
43671;DHT22;29267;50.906;7.248;2022-07-19T13:41:39;36.10;37.70
43671;DHT22;29267;50.906;7.248;2022-07-19T13:44:05;36.00;37.00
43671;DHT22;29267;50.906;7.248;2022-07-19T13:46:31;35.90;37.70
43671;DHT22;29267;50.906;7.248;2022-07-19T13:48:57;35.90;37.70
43671;DHT22;29267;50.906;7.248;2022-07-19T13:51:23;35.90;38.80
43671;DHT22;29267;50.906;7.248;2022-07-19T13:53:49;35.90;37.30
43671;DHT22;29267;50.906;7.248;2022-07-19T13:56:15;35.90;37.30
43671;DHT22;29267;50.906;7.248;2022-07-19T13:58:41;36.00;38.00
43671;DHT22;29267;50.906;7.248;2022-07-19T14:01:07;35.90;37.10
43671;DHT22;29267;50.906;7.248;2022-07-19T14:03:33;35.90;38.00
43671;DHT22;29267;50.906;7.248;2022-07-19T14:05:58;35.80;36.80
43671;DHT22;29267;50.906;7.248;2022-07-19T14:08:24;35.70;37.20
43671;DHT22;29267;50.906;7.248;2022-07-19T14:10:49;35.70;37.50
43671;DHT22;29267;50.906;7.248;2022-07-19T14:13:15;35.70;38.50
43671;DHT22;29267;50.906;7.248;2022-07-19T14:15:41;35.70;37.20
43671;DHT22;29267;50.906;7.248;2022-07-19T14:18:08;35.70;37.00
43671;DHT22;29267;50.906;7.248;2022-07-19T14:20:34;35.60;38.40
43671;DHT22;29267;50.906;7.248;2022-07-19T14:23:00;35.60;37.90
43671;DHT22;29267;50.906;7.248;2022-07-19T14:25:25;35.60;37.90
43671;DHT22;29267;50.906;7.248;2022-07-19T14:27:51;35.60;38.50
43671;DHT22;29267;50.906;7.248;2022-07-19T14:30:17;35.60;38.40
43671;DHT22;29267;50.906;7.248;2022-07-19T14:32:42;35.60;37.90
43671;DHT22;29267;50.906;7.248;2022-07-19T14:35:08;35.50;39.10
43671;DHT22;29267;50.906;7.248;2022-07-19T14:37:34;35.50;38.50
43671;DHT22;29267;50.906;7.248;2022-07-19T14:40:00;35.50;38.10
43671;DHT22;29267;50.906;7.248;2022-07-19T14:42:25;35.50;38.50
43671;DHT22;29267;50.906;7.248;2022-07-19T14:44:55;35.50;39.70
43671;DHT22;29267;50.906;7.248;2022-07-19T14:47:21;35.50;38.70
43671;DHT22;29267;50.906;7.248;2022-07-19T14:49:46;35.40;37.90
43671;DHT22;29267;50.906;7.248;2022-07-19T14:52:12;35.40;39.30
43671;DHT22;29267;50.906;7.248;2022-07-19T14:54:38;35.40;39.00
43671;DHT22;29267;50.906;7.248;2022-07-19T14:57:03;35.40;38.70
43671;DHT22;29267;50.906;7.248;2022-07-19T14:59:29;35.30;39.60
43671;DHT22;29267;50.906;7.248;2022-07-19T15:01:54;35.30;38.40
43671;DHT22;29267;50.906;7.248;2022-07-19T15:04:20;35.30;38.60
43671;DHT22;29267;50.906;7.248;2022-07-19T15:06:46;35.30;38.30
43671;DHT22;29267;50.906;7.248;2022-07-19T15:09:12;35.30;39.50
43671;DHT22;29267;50.906;7.248;2022-07-19T15:11:39;35.30;39.10
43671;DHT22;29267;50.906;7.248;2022-07-19T15:14:05;35.30;38.80
43671;DHT22;29267;50.906;7.248;2022-07-19T15:16:31;35.30;38.40
43671;DHT22;29267;50.906;7.248;2022-07-19T15:18:56;35.30;38.80
43671;DHT22;29267;50.906;7.248;2022-07-19T15:21:22;35.20;39.40
43671;DHT22;29267;50.906;7.248;2022-07-19T15:23:48;35.20;39.50
43671;DHT22;29267;50.906;7.248;2022-07-19T15:26:14;35.20;37.80
43671;DHT22;29267;50.906;7.248;2022-07-19T15:28:39;35.20;38.40
43671;DHT22;29267;50.906;7.248;2022-07-19T15:31:06;35.10;38.40
43671;DHT22;29267;50.906;7.248;2022-07-19T15:33:32;35.20;38.70
43671;DHT22;29267;50.906;7.248;2022-07-19T15:35:58;35.10;38.50
43671;DHT22;29267;50.906;7.248;2022-07-19T15:38:24;35.10;38.90
43671;DHT22;29267;50.906;7.248;2022-07-19T15:40:50;35.10;37.90
43671;DHT22;29267;50.906;7.248;2022-07-19T15:43:17;35.00;38.70
43671;DHT22;29267;50.906;7.248;2022-07-19T15:45:43;35.00;38.30
43671;DHT22;29267;50.906;7.248;2022-07-19T15:48:09;35.10;39.20
43671;DHT22;29267;50.906;7.248;2022-07-19T15:50:35;35.10;39.00
43671;DHT22;29267;50.906;7.248;2022-07-19T15:53:04;35.10;37.90
43671;DHT22;29267;50.906;7.248;2022-07-19T15:55:29;35.00;37.80
43671;DHT22;29267;50.906;7.248;2022-07-19T15:57:55;35.10;38.60
43671;DHT22;29267;50.906;7.248;2022-07-19T16:00:21;35.00;38.30
43671;DHT22;29267;50.906;7.248;2022-07-19T16:02:47;35.00;37.80
43671;DHT22;29267;50.906;7.248;2022-07-19T16:05:12;34.90;37.60
43671;DHT22;29267;50.906;7.248;2022-07-19T16:07:38;34.90;37.80
43671;DHT22;29267;50.906;7.248;2022-07-19T16:10:05;34.90;38.00